Terminal Aerodrome Forecast
Issued by NWS Detroit/Pontiac, MI

Home | Current Version | Previous Version | Text Only | Print | Product List | Glossary On
Versions: 1 2 3 4 5 6 7 8 9 10 11 12 13 14 15 16 17 18 19 20
000
FTUS43 KDTX 221120
TAFFNT
TAF
KFNT 221120Z 2212/2312 25012G18KT P6SM OVC045
     FM221400 25013G24KT P6SM BKN045
     FM221600 25015G25KT P6SM SCT050
     FM230000 22008KT P6SM SCT250
     FM230800 20005KT P6SM BKN100=

USA.gov is the U.S. government's official web portal to all federal, state and local government web resources and services.